Time;durP1;ratioP1;P1;durP2;ratioP2;P2;SDS_P1;SDS_P2;PMS_P1;PMS_P2;Temp;Humidity;BMP_temperature;BMP_pressure;BME280_temperature;BME280_humidity;BME280_pressure;Samples;Min_cycle;Max_cycle;Signal;HPM_P1;HPM_P2
2022/02/07 05:02:43;;;;;;;6.00;2.05;;;2.80;99.90;;;;;;5011061;23;20332;-66
2022/02/07 05:05:23;;;;;;;5.30;1.40;;;2.90;99.90;;;;;;4951255;29;20204;-67
2022/02/07 05:16:01;;;;;;;6.57;1.45;;;2.90;99.90;;;;;;4976785;23;20240;-68
2022/02/07 05:18:31;;;;;;;0.82;0.82;;;2.90;99.90;;;;;;4952854;29;20260;-70
2022/02/07 05:20:57;;;;;;;0.50;0.50;;;2.90;99.90;;;;;;4947454;28;20213;-69
2022/02/07 05:23:24;;;;;;;1.65;0.70;;;2.90;99.90;;;;;;4939365;29;20201;-69
2022/02/07 05:25:52;;;;;;;1.13;0.50;;;2.90;99.90;;;;;;4939852;29;20277;-69
2022/02/07 05:28:18;;;;;;;3.58;0.80;;;2.90;99.90;;;;;;4938958;29;20201;-69
2022/02/07 05:30:45;;;;;;;1.27;0.38;;;2.90;99.90;;;;;;4952548;29;20209;-69
2022/02/07 05:33:12;;;;;;;2.38;1.10;;;2.90;99.90;;;;;;4952328;28;20225;-69
2022/02/07 05:35:40;;;;;;;1.25;0.50;;;2.90;99.90;;;;;;4953108;28;20224;-70
2022/02/07 05:38:08;;;;;;;3.38;0.63;;;2.90;99.90;;;;;;4952030;28;20272;-69
2022/02/07 05:40:41;;;;;;;2.10;0.85;;;3.00;99.90;;;;;;4939705;29;20209;-69
2022/02/07 05:43:08;;;;;;;3.97;0.95;;;3.00;99.90;;;;;;4952082;28;20209;-69
2022/02/07 05:45:35;;;;;;;2.47;0.68;;;3.00;99.90;;;;;;4940077;29;20225;-69
2022/02/07 05:48:01;;;;;;;0.73;0.40;;;3.00;99.90;;;;;;4952885;28;20201;-69
2022/02/07 05:50:28;;;;;;;1.15;0.50;;;3.10;99.90;;;;;;4938915;28;20206;-69
2022/02/07 05:52:57;;;;;;;6.82;0.60;;;3.10;99.90;;;;;;4952778;28;20225;-69
2022/02/07 05:55:24;;;;;;;0.47;0.45;;;3.10;99.90;;;;;;4951170;28;20233;-69
2022/02/07 05:57:51;;;;;;;1.58;0.65;;;3.10;99.90;;;;;;4951824;29;20693;-69
2022/02/07 06:00:18;;;;;;;0.63;0.57;;;3.10;99.90;;;;;;4952372;28;20260;-69
2022/02/07 06:02:45;;;;;;;2.75;0.80;;;3.10;99.90;;;;;;4951330;29;20611;-70
2022/02/07 06:05:12;;;;;;;6.38;1.20;;;3.10;99.90;;;;;;4949169;28;20280;-69
2022/02/07 06:07:38;;;;;;;2.60;0.85;;;3.20;99.90;;;;;;4949093;28;20220;-69
2022/02/07 06:10:08;;;;;;;3.25;1.08;;;3.10;99.90;;;;;;4951955;28;20287;-69
2022/02/07 06:12:35;;;;;;;0.75;0.70;;;3.10;99.90;;;;;;4950126;29;20224;-70
2022/02/07 06:15:02;;;;;;;3.88;1.40;;;3.10;99.90;;;;;;4942151;28;20321;-69
2022/02/07 06:17:29;;;;;;;6.80;2.88;;;3.10;99.90;;;;;;4951019;29;20525;-70
2022/02/07 06:19:58;;;;;;;2.40;1.10;;;3.10;99.90;;;;;;4952398;28;20213;-70
2022/02/07 06:22:25;;;;;;;7.13;1.27;;;3.00;99.90;;;;;;4951244;28;20268;-70
2022/02/07 06:24:52;;;;;;;1.85;0.85;;;3.00;99.90;;;;;;4952135;28;20233;-69
2022/02/07 06:27:20;;;;;;;3.20;0.80;;;3.00;99.90;;;;;;4951064;28;20271;-68
2022/02/07 06:29:47;;;;;;;3.20;1.25;;;3.00;99.90;;;;;;4952723;28;20220;-69
2022/02/07 06:32:14;;;;;;;6.07;1.67;;;3.00;99.90;;;;;;4951292;28;20809;-69
2022/02/07 06:34:41;;;;;;;1.75;0.73;;;3.00;99.90;;;;;;4945209;28;20226;-69
2022/02/07 06:37:08;;;;;;;2.72;0.80;;;3.00;99.90;;;;;;4940223;29;20242;-70
2022/02/07 06:39:35;;;;;;;1.60;1.50;;;3.00;99.90;;;;;;4951896;28;20204;-69
2022/02/07 06:42:01;;;;;;;5.97;1.08;;;3.10;99.90;;;;;;4950536;29;20205;-69
2022/02/07 06:44:29;;;;;;;2.45;1.50;;;3.00;99.90;;;;;;4952273;28;20280;-70
2022/02/07 06:46:56;;;;;;;4.75;0.90;;;3.00;99.90;;;;;;4948214;29;20251;-70
2022/02/07 06:49:23;;;;;;;2.67;1.20;;;3.00;99.90;;;;;;4942613;29;20291;-71
2022/02/07 06:51:49;;;;;;;3.92;0.85;;;3.00;99.90;;;;;;4950453;29;20273;-69
2022/02/07 06:54:16;;;;;;;4.88;1.08;;;3.00;99.90;;;;;;4951645;28;20272;-70
2022/02/07 06:56:45;;;;;;;4.55;1.35;;;3.10;99.90;;;;;;4951687;29;20240;-69
2022/02/07 06:59:15;;;;;;;11.82;1.70;;;3.10;99.90;;;;;;4951539;28;20205;-69
2022/02/07 07:01:44;;;;;;;1.95;0.80;;;3.10;99.90;;;;;;4948151;29;20272;-69
2022/02/07 07:04:11;;;;;;;3.53;1.75;;;3.20;99.90;;;;;;4943975;28;20296;-69
2022/02/07 07:06:38;;;;;;;4.93;1.50;;;3.20;99.90;;;;;;4951317;28;20205;-70
2022/02/07 07:09:09;;;;;;;9.32;1.42;;;3.30;99.90;;;;;;4952440;28;20674;-70
2022/02/07 07:11:36;;;;;;;6.32;2.40;;;3.30;99.90;;;;;;4956717;28;20216;-70
2022/02/07 07:14:12;;;;;;;4.13;1.40;;;3.30;99.90;;;;;;4963438;29;20201;-71
2022/02/07 07:16:50;;;;;;;4.00;1.48;;;3.40;99.90;;;;;;4959814;28;20549;-70
2022/02/07 07:19:20;;;;;;;7.97;2.25;;;3.40;99.90;;;;;;4951150;28;20213;-70
2022/02/07 07:21:48;;;;;;;6.75;1.13;;;3.40;99.90;;;;;;4947216;29;20205;-70
2022/02/07 07:24:16;;;;;;;6.13;1.90;;;3.40;99.90;;;;;;4946835;28;20213;-70
2022/02/07 07:26:43;;;;;;;6.28;1.75;;;3.40;99.90;;;;;;4944978;29;20371;-70
2022/02/07 07:29:13;;;;;;;10.48;2.40;;;3.50;99.90;;;;;;4936619;29;20297;-70
2022/02/07 07:31:44;;;;;;;5.85;2.38;;;3.50;99.90;;;;;;4948678;29;20206;-70
2022/02/07 07:34:15;;;;;;;11.82;2.67;;;3.50;99.90;;;;;;4939146;29;20206;-72
2022/02/07 07:36:43;;;;;;;10.70;3.35;;;3.50;99.90;;;;;;4937117;29;20218;-70
2022/02/07 07:39:10;;;;;;;1.25;1.13;;;3.60;99.90;;;;;;4948211;29;20370;-70
2022/02/07 07:41:38;;;;;;;6.72;2.22;;;3.60;99.90;;;;;;4950048;29;20205;-70
2022/02/07 07:44:05;;;;;;;8.00;2.70;;;3.60;99.90;;;;;;4949965;28;20253;-71
2022/02/07 07:46:32;;;;;;;9.55;3.28;;;3.60;99.90;;;;;;4946683;29;20197;-70
2022/02/07 07:49:03;;;;;;;9.38;3.05;;;3.60;99.90;;;;;;4943899;29;20533;-70
2022/02/07 07:51:39;;;;;;;15.60;3.88;;;3.60;99.90;;;;;;4951496;29;20207;-70
2022/02/07 07:54:20;;;;;;;5.88;4.03;;;3.60;99.90;;;;;;4947023;29;20225;-70
2022/02/07 08:02:17;;;;;;;20.25;3.47;;;3.90;99.90;;;;;;4942750;29;20253;-70
2022/02/07 08:04:46;;;;;;;5.88;2.03;;;3.90;99.90;;;;;;4939099;28;20866;-69
2022/02/07 08:07:18;;;;;;;10.05;3.70;;;4.00;99.90;;;;;;4945217;29;20213;-70
2022/02/07 08:10:06;;;;;;;8.05;2.05;;;4.10;99.90;;;;;;4948776;29;20230;-70
2022/02/07 08:12:35;;;;;;;3.60;1.92;;;4.10;99.90;;;;;;4953825;29;20325;-70
2022/02/07 08:15:03;;;;;;;6.63;2.47;;;4.10;99.90;;;;;;4951340;28;20311;-70
2022/02/07 08:17:30;;;;;;;7.22;2.72;;;4.20;99.90;;;;;;4954461;28;20280;-71
2022/02/07 08:19:57;;;;;;;7.00;2.10;;;4.30;99.90;;;;;;4947819;28;20737;-70
2022/02/07 08:22:24;;;;;;;13.63;2.70;;;4.30;99.90;;;;;;4945095;29;20206;-70
2022/02/07 08:24:55;;;;;;;11.02;2.50;;;4.40;99.90;;;;;;4947213;28;20233;-71
2022/02/07 08:27:23;;;;;;;11.77;2.28;;;4.40;99.90;;;;;;4946589;28;20202;-70
2022/02/07 08:29:50;;;;;;;8.77;2.22;;;4.50;99.90;;;;;;4946415;29;20314;-70
2022/02/07 08:32:17;;;;;;;3.00;1.75;;;4.50;99.90;;;;;;4942732;28;20209;-71
2022/02/07 08:34:43;;;;;;;5.57;2.08;;;4.50;99.90;;;;;;4945070;28;20270;-70
2022/02/07 08:37:10;;;;;;;8.20;2.55;;;4.60;99.90;;;;;;4940956;28;20210;-71
2022/02/07 08:39:37;;;;;;;8.13;3.20;;;4.70;99.90;;;;;;4937586;29;20210;-70
2022/02/07 08:42:06;;;;;;;14.07;3.00;;;4.80;99.90;;;;;;4943581;28;20272;-70
2022/02/07 08:44:32;;;;;;;9.70;3.88;;;5.00;99.90;;;;;;4945275;29;20253;-70
2022/02/07 08:46:59;;;;;;;7.45;3.53;;;5.00;99.90;;;;;;4934615;29;20214;-70
2022/02/07 08:49:26;;;;;;;6.57;2.50;;;5.00;99.90;;;;;;4948506;29;20213;-69
2022/02/07 08:51:52;;;;;;;14.00;2.80;;;5.00;99.90;;;;;;4952855;28;20220;-70
2022/02/07 08:54:23;;;;;;;11.38;2.58;;;4.90;99.90;;;;;;4949185;28;20299;-70
2022/02/07 08:56:54;;;;;;;9.13;2.55;;;4.90;99.90;;;;;;4941268;28;20210;-70
2022/02/07 08:59:30;;;;;;;11.13;2.70;;;5.00;99.90;;;;;;4944731;29;20648;-69
2022/02/07 09:02:11;;;;;;;10.70;2.00;;;5.30;99.90;;;;;;4943627;29;20200;-70
2022/02/07 09:04:49;;;;;;;5.07;1.67;;;5.60;99.90;;;;;;4952747;28;20251;-69
2022/02/07 09:07:19;;;;;;;17.27;3.70;;;5.90;99.90;;;;;;4950138;28;20226;-70
2022/02/07 09:09:46;;;;;;;11.90;2.75;;;5.90;99.90;;;;;;4945948;29;20205;-70
2022/02/07 09:12:14;;;;;;;7.88;2.05;;;5.90;99.90;;;;;;4944678;29;20275;-70
2022/02/07 09:14:56;;;;;;;7.47;2.08;;;6.00;99.90;;;;;;4953055;28;20241;-69
2022/02/07 09:17:22;;;;;;;7.55;2.35;;;6.00;99.90;;;;;;4950094;29;20224;-70
2022/02/07 09:19:49;;;;;;;11.57;2.00;;;5.90;99.90;;;;;;4952751;29;20221;-70
2022/02/07 09:22:16;;;;;;;6.85;2.88;;;5.80;99.90;;;;;;4953215;28;20257;-69
2022/02/07 09:24:42;;;;;;;7.45;1.70;;;5.80;99.90;;;;;;4946109;28;20229;-69
2022/02/07 09:27:09;;;;;;;8.40;2.20;;;5.70;99.90;;;;;;4950774;29;20260;-70
2022/02/07 09:29:36;;;;;;;8.68;2.58;;;5.80;99.90;;;;;;4944230;29;20201;-69
2022/02/07 09:32:05;;;;;;;7.57;2.85;;;5.70;99.90;;;;;;4937821;29;20198;-69
2022/02/07 09:34:32;;;;;;;10.93;3.50;;;5.80;99.90;;;;;;4951028;28;20228;-70
2022/02/07 09:36:59;;;;;;;16.27;3.00;;;5.80;99.90;;;;;;4938742;28;20231;-69
2022/02/07 09:39:30;;;;;;;9.27;2.80;;;5.90;99.90;;;;;;4937887;28;20655;-70
2022/02/07 09:41:58;;;;;;;10.90;3.22;;;6.00;99.90;;;;;;4932655;29;20635;-70
2022/02/07 09:44:28;;;;;;;11.07;3.10;;;6.00;99.90;;;;;;4939602;29;20198;-70
2022/02/07 09:46:56;;;;;;;12.27;5.28;;;6.10;99.90;;;;;;4937675;29;20201;-70
2022/02/07 09:49:25;;;;;;;13.93;3.75;;;6.00;99.90;;;;;;4943662;29;20205;-71
2022/02/07 09:51:53;;;;;;;7.47;3.30;;;5.90;99.90;;;;;;4939847;29;20209;-70
2022/02/07 09:54:21;;;;;;;8.75;3.10;;;5.90;99.90;;;;;;4938068;28;20221;-70
2022/02/07 09:56:50;;;;;;;6.13;3.88;;;6.00;99.90;;;;;;4933556;29;20228;-70
2022/02/07 09:59:18;;;;;;;5.65;2.50;;;6.00;99.90;;;;;;4939148;29;20689;-71
2022/02/07 10:01:46;;;;;;;2.13;1.80;;;5.90;99.90;;;;;;4951367;29;20679;-70
2022/02/07 10:04:23;;;;;;;5.68;3.15;;;5.90;99.90;;;;;;4952524;28;20216;-70
2022/02/07 10:06:58;;;;;;;3.95;2.05;;;5.90;99.90;;;;;;4952169;28;20209;-70
2022/02/07 10:09:44;;;;;;;5.55;2.65;;;5.90;99.90;;;;;;4950801;29;20232;-71
2022/02/07 10:12:36;;;;;;;4.35;1.50;;;5.90;99.90;;;;;;4951498;29;20213;-71
2022/02/07 10:15:24;;;;;;;2.35;2.20;;;6.00;99.90;;;;;;4942533;29;20666;-70
2022/02/07 10:18:05;;;;;;;3.67;1.67;;;6.20;99.90;;;;;;4933159;29;20209;-71
2022/02/07 10:35:08;;;;;;;7.25;2.92;;;6.50;99.90;;;;;;4951842;28;20543;-71
2022/02/07 10:37:57;;;;;;;6.45;2.35;;;6.70;99.90;;;;;;4952251;29;20240;-71
2022/02/07 10:40:31;;;;;;;3.53;1.90;;;6.70;99.90;;;;;;4951402;29;20875;-71
2022/02/07 10:43:19;;;;;;;7.57;2.78;;;6.70;99.90;;;;;;4952037;28;20219;-71
2022/02/07 10:46:07;;;;;;;4.45;2.40;;;6.70;99.90;;;;;;4952101;28;20240;-71
2022/02/07 10:48:40;;;;;;;9.88;3.13;;;6.70;99.90;;;;;;4951339;28;21683;-71
2022/02/07 10:51:16;;;;;;;13.77;2.15;;;6.80;99.90;;;;;;4938468;28;20201;-70
2022/02/07 10:53:45;;;;;;;5.82;2.47;;;6.80;99.90;;;;;;4936872;29;20276;-71
2022/02/07 10:56:14;;;;;;;10.20;3.60;;;6.70;99.90;;;;;;4936305;29;20233;-71
2022/02/07 10:58:42;;;;;;;6.50;2.80;;;6.80;99.90;;;;;;4936060;29;20218;-71
2022/02/07 11:01:14;;;;;;;8.55;2.35;;;6.90;99.90;;;;;;4955202;29;20220;-71
2022/02/07 11:03:46;;;;;;;4.90;2.05;;;6.90;99.90;;;;;;4955673;29;20246;-71
2022/02/07 11:06:16;;;;;;;5.38;2.00;;;6.90;99.90;;;;;;4955555;28;20312;-71
2022/02/07 11:08:50;;;;;;;7.68;2.10;;;6.80;99.90;;;;;;4955438;29;20666;-70
2022/02/07 11:11:38;;;;;;;5.78;2.60;;;6.70;99.90;;;;;;4955084;29;20213;-70
2022/02/07 11:16:59;;;;;;;11.13;2.45;;;6.70;99.90;;;;;;4946830;29;20287;-70
2022/02/07 11:19:40;;;;;;;9.23;3.15;;;6.70;99.90;;;;;;4954600;29;20645;-71
2022/02/07 11:22:17;;;;;;;1.90;1.80;;;6.80;99.90;;;;;;4954661;28;20603;-71
2022/02/07 11:25:01;;;;;;;6.82;2.72;;;6.80;99.90;;;;;;4940832;29;20706;-70
2022/02/07 11:27:48;;;;;;;3.10;1.60;;;6.90;99.90;;;;;;4952745;29;20606;-71
2022/02/07 11:30:16;;;;;;;5.57;2.30;;;6.90;99.90;;;;;;4954767;28;20205;-71
2022/02/07 11:32:56;;;;;;;6.40;2.10;;;7.00;99.90;;;;;;4956918;29;20264;-71
2022/02/07 11:35:26;;;;;;;9.00;2.53;;;7.00;99.90;;;;;;4958244;28;20335;-71
2022/02/07 11:38:11;;;;;;;13.15;3.20;;;7.00;99.90;;;;;;4958151;29;20208;-71
2022/02/07 11:40:40;;;;;;;5.03;1.88;;;7.00;99.90;;;;;;4956455;29;20201;-71
2022/02/07 11:43:10;;;;;;;4.25;1.98;;;7.10;99.90;;;;;;4955594;29;20205;-72
2022/02/07 11:45:50;;;;;;;4.22;1.80;;;7.10;99.90;;;;;;4956052;28;20237;-71
2022/02/07 11:48:20;;;;;;;6.53;1.85;;;7.30;99.90;;;;;;4956012;29;20638;-69
2022/02/07 11:50:47;;;;;;;7.10;1.35;;;7.30;99.90;;;;;;4955127;29;20295;-69
2022/02/07 11:53:16;;;;;;;5.88;1.75;;;7.30;99.90;;;;;;4954717;29;20213;-69
2022/02/07 11:55:47;;;;;;;5.93;3.10;;;7.40;99.90;;;;;;4954345;28;20225;-70
2022/02/07 11:58:23;;;;;;;2.25;2.00;;;7.40;99.90;;;;;;4954735;29;20811;-70
2022/02/07 12:00:56;;;;;;;5.28;1.55;;;7.40;99.90;;;;;;4935729;29;20220;-70
2022/02/07 12:03:24;;;;;;;5.63;1.88;;;7.30;99.90;;;;;;4935386;29;20293;-71
2022/02/07 12:05:52;;;;;;;2.17;1.50;;;7.30;99.90;;;;;;4934939;29;20233;-70
2022/02/07 12:08:21;;;;;;;7.35;2.25;;;7.30;99.90;;;;;;4935556;29;20206;-71
2022/02/07 12:11:04;;;;;;;8.68;1.90;;;7.30;99.90;;;;;;4934861;29;20799;-70
2022/02/07 12:13:38;;;;;;;1.65;1.10;;;7.30;99.90;;;;;;4939943;29;20319;-70
2022/02/07 12:16:10;;;;;;;5.40;2.33;;;7.10;99.90;;;;;;4953731;28;20314;-70
2022/02/07 12:18:38;;;;;;;6.82;2.35;;;7.00;99.90;;;;;;4954243;28;20214;-70
2022/02/07 12:21:19;;;;;;;5.55;1.27;;;7.00;99.90;;;;;;4952953;28;20205;-70
2022/02/07 12:23:52;;;;;;;7.50;2.60;;;6.90;99.90;;;;;;4953344;28;20209;-71
2022/02/07 12:26:19;;;;;;;16.13;2.47;;;6.90;99.90;;;;;;4953732;28;20745;-70
2022/02/07 12:28:49;;;;;;;4.30;1.98;;;6.80;99.90;;;;;;4952844;28;20559;-70
2022/02/07 12:31:20;;;;;;;8.23;1.83;;;6.80;99.90;;;;;;4953679;29;20233;-70
2022/02/07 12:33:58;;;;;;;10.65;2.65;;;6.80;99.90;;;;;;4953772;29;20232;-69
2022/02/07 12:36:26;;;;;;;6.45;2.88;;;6.80;99.90;;;;;;4953968;28;20232;-70
2022/02/07 12:38:54;;;;;;;6.40;2.83;;;6.90;99.90;;;;;;4953500;29;20659;-70
2022/02/07 12:41:23;;;;;;;4.55;2.20;;;7.00;99.90;;;;;;4953339;29;20299;-69
2022/02/07 12:43:54;;;;;;;5.18;2.30;;;6.90;99.90;;;;;;4953385;29;20213;-70
2022/02/07 12:46:23;;;;;;;4.28;2.25;;;6.90;99.90;;;;;;4952240;28;20712;-70
2022/02/07 12:48:55;;;;;;;6.43;2.35;;;6.90;99.90;;;;;;4934078;29;20206;-69
2022/02/07 12:51:24;;;;;;;5.40;3.17;;;6.90;99.90;;;;;;4934227;29;20551;-69
2022/02/07 12:53:52;;;;;;;4.18;2.40;;;6.90;99.90;;;;;;4934660;29;20742;-70
2022/02/07 12:56:19;;;;;;;11.10;3.08;;;6.90;99.90;;;;;;4934220;29;20320;-70
2022/02/07 12:58:47;;;;;;;4.65;2.13;;;7.00;99.90;;;;;;4942723;29;20271;-71
2022/02/07 13:01:26;;;;;;;5.28;1.75;;;7.00;99.90;;;;;;4952644;29;20205;-70
2022/02/07 13:03:56;;;;;;;7.50;2.20;;;7.00;99.90;;;;;;4953363;29;20220;-71
2022/02/07 13:06:30;;;;;;;2.35;2.20;;;7.00;99.90;;;;;;4953643;28;20221;-72
2022/02/07 13:08:58;;;;;;;10.23;2.30;;;7.10;99.90;;;;;;4953306;29;20221;-71
2022/02/07 13:11:30;;;;;;;11.57;3.00;;;7.00;99.90;;;;;;4952730;29;20209;-72
2022/02/07 13:13:58;;;;;;;10.50;2.72;;;7.10;99.90;;;;;;4952130;28;20706;-72
2022/02/07 13:16:30;;;;;;;8.73;3.10;;;7.00;99.90;;;;;;4952452;28;20244;-71
2022/02/07 13:19:09;;;;;;;8.32;4.20;;;7.00;99.90;;;;;;4950464;29;20292;-70
2022/02/07 13:21:39;;;;;;;14.63;5.15;;;7.10;99.90;;;;;;4950514;29;20252;-69
2022/02/07 13:24:13;;;;;;;10.63;5.13;;;7.10;99.90;;;;;;4937865;28;20265;-72
2022/02/07 13:26:43;;;;;;;14.85;4.10;;;7.00;99.90;;;;;;4944661;29;20213;-70
2022/02/07 13:29:15;;;;;;;9.23;3.47;;;7.00;99.90;;;;;;4949481;28;20307;-71
2022/02/07 13:31:43;;;;;;;10.13;4.20;;;7.20;99.90;;;;;;4933563;29;20253;-71
2022/02/07 13:34:22;;;;;;;7.95;2.75;;;7.20;99.90;;;;;;4943561;28;20645;-71
2022/02/07 13:36:51;;;;;;;6.60;3.28;;;7.30;99.90;;;;;;4952526;29;20316;-70
2022/02/07 13:39:19;;;;;;;3.67;2.47;;;7.40;99.90;;;;;;4952867;29;20211;-71
2022/02/07 13:42:01;;;;;;;4.85;1.77;;;7.40;99.90;;;;;;4951974;29;20243;-73
2022/02/07 13:44:28;;;;;;;5.65;2.28;;;7.30;99.90;;;;;;4952982;28;20209;-69
2022/02/07 13:47:00;;;;;;;2.00;1.27;;;7.30;99.90;;;;;;4952487;29;20450;-71
2022/02/07 13:49:27;;;;;;;2.25;1.20;;;7.00;99.90;;;;;;4953014;28;20213;-71
2022/02/07 13:51:54;;;;;;;0.60;0.60;;;6.70;99.90;;;;;;4951732;29;20287;-71
2022/02/07 13:54:28;;;;;;;2.80;0.95;;;6.30;99.90;;;;;;4952670;28;20269;-71
2022/02/07 13:56:58;;;;;;;1.55;1.20;;;6.00;99.90;;;;;;4951333;29;20219;-70
2022/02/07 13:59:25;;;;;;;3.20;1.25;;;5.90;99.90;;;;;;4950296;29;20216;-71
2022/02/07 14:01:52;;;;;;;0.90;0.90;;;5.90;99.90;;;;;;4951963;28;20209;-71
2022/02/07 14:04:24;;;;;;;3.53;1.42;;;5.90;99.90;;;;;;4951966;28;20205;-70
2022/02/07 14:07:10;;;;;;;1.67;0.82;;;5.90;99.90;;;;;;4943684;28;20217;-72
2022/02/07 14:09:38;;;;;;;3.33;1.30;;;5.90;99.90;;;;;;4941124;29;20635;-71
2022/02/07 14:12:06;;;;;;;9.65;1.50;;;5.90;99.90;;;;;;4932403;29;20801;-70
2022/02/07 14:14:33;;;;;;;1.40;1.30;;;5.90;99.90;;;;;;4932581;29;20253;-70
2022/02/07 14:16:59;;;;;;;3.42;1.70;;;5.90;99.90;;;;;;4932662;29;20261;-70
2022/02/07 14:19:40;;;;;;;3.72;1.02;;;5.90;99.90;;;;;;4932937;29;20625;-71
2022/02/07 14:22:08;;;;;;;3.90;1.45;;;5.90;99.90;;;;;;4932853;29;20312;-70
2022/02/07 14:24:35;;;;;;;2.92;1.30;;;5.90;99.90;;;;;;4947414;28;20304;-71
2022/02/07 14:27:03;;;;;;;1.80;1.70;;;5.90;99.90;;;;;;4953547;29;20221;-71
2022/02/07 14:29:29;;;;;;;4.10;1.85;;;5.90;99.90;;;;;;4955675;28;20568;-69
2022/02/07 14:31:56;;;;;;;2.90;1.80;;;5.90;99.90;;;;;;4955581;29;20205;-71
2022/02/07 14:34:23;;;;;;;4.13;1.25;;;5.90;99.90;;;;;;4956071;28;20221;-69
2022/02/07 14:36:51;;;;;;;4.55;2.00;;;6.00;99.90;;;;;;4955684;29;20213;-69
2022/02/07 14:39:18;;;;;;;4.53;1.95;;;5.90;99.90;;;;;;4956357;29;20230;-70
2022/02/07 14:41:46;;;;;;;3.35;1.17;;;6.00;99.90;;;;;;4954486;29;20220;-70
2022/02/07 14:44:20;;;;;;;5.65;2.38;;;6.00;99.90;;;;;;4955903;28;20212;-69
2022/02/07 14:46:54;;;;;;;5.63;2.20;;;6.00;99.90;;;;;;4951867;29;20313;-69
2022/02/07 14:49:20;;;;;;;5.68;3.33;;;6.00;99.90;;;;;;4936203;29;20675;-69
2022/02/07 14:51:47;;;;;;;19.33;5.45;;;6.00;99.90;;;;;;4935905;29;20631;-69
2022/02/07 14:54:15;;;;;;;4.88;3.03;;;6.00;99.90;;;;;;4936282;29;20305;-69
2022/02/07 14:56:42;;;;;;;10.82;2.55;;;6.00;99.90;;;;;;4936014;29;20210;-72
2022/02/07 14:59:13;;;;;;;5.63;2.22;;;6.00;99.90;;;;;;4955134;29;20209;-69
2022/02/07 15:01:40;;;;;;;7.35;2.97;;;6.00;99.90;;;;;;4955102;29;20213;-70
2022/02/07 15:04:07;;;;;;;4.43;3.03;;;6.00;99.90;;;;;;4955600;29;20232;-69
2022/02/07 15:06:34;;;;;;;7.28;2.92;;;6.00;99.90;;;;;;4955032;28;20232;-71
2022/02/07 15:09:00;;;;;;;5.95;2.25;;;6.00;99.90;;;;;;4955276;29;20603;-71
2022/02/07 15:11:28;;;;;;;5.53;1.48;;;6.00;99.90;;;;;;4952784;29;20248;-69
2022/02/07 15:13:55;;;;;;;4.43;1.50;;;6.00;99.90;;;;;;4943347;28;20214;-69
2022/02/07 15:16:23;;;;;;;6.65;2.17;;;6.00;99.90;;;;;;4954755;28;20244;-69
2022/02/07 15:18:49;;;;;;;2.35;1.30;;;6.10;99.90;;;;;;4954874;29;20217;-70
2022/02/07 15:21:16;;;;;;;4.60;1.95;;;6.10;99.90;;;;;;4944673;29;20206;-70
2022/02/07 15:23:43;;;;;;;3.88;1.98;;;6.20;99.90;;;;;;4954628;28;20471;-70
2022/02/07 15:26:10;;;;;;;4.55;1.30;;;6.30;99.90;;;;;;4954069;28;20231;-69
2022/02/07 15:28:39;;;;;;;2.22;2.08;;;6.30;99.90;;;;;;4944078;29;20287;-68
2022/02/07 15:31:06;;;;;;;2.78;1.50;;;6.30;99.90;;;;;;4936656;29;20232;-69
2022/02/07 15:33:40;;;;;;;10.10;2.58;;;6.20;99.90;;;;;;4954504;29;20205;-69
2022/02/07 15:36:07;;;;;;;7.70;1.70;;;6.20;99.90;;;;;;4950021;28;20234;-69
2022/02/07 15:38:35;;;;;;;1.95;1.35;;;6.20;99.90;;;;;;4945086;29;20260;-67
2022/02/07 15:41:03;;;;;;;5.00;2.15;;;6.20;99.90;;;;;;4954353;28;20252;-69
2022/02/07 15:43:30;;;;;;;4.50;2.05;;;6.10;99.90;;;;;;4942603;29;20208;-67
2022/02/07 15:45:58;;;;;;;2.80;1.73;;;6.10;99.90;;;;;;4954142;28;20230;-67
2022/02/07 15:48:25;;;;;;;4.00;2.53;;;6.00;99.90;;;;;;4954362;29;20217;-68
2022/02/07 15:50:53;;;;;;;3.03;2.38;;;6.00;99.90;;;;;;4951647;29;20225;-69
2022/02/07 15:53:20;;;;;;;5.97;2.17;;;5.90;99.90;;;;;;4941367;28;20214;-69
2022/02/07 15:55:47;;;;;;;4.40;1.33;;;5.80;99.90;;;;;;4953454;28;20237;-68
2022/02/07 15:58:13;;;;;;;5.07;2.08;;;5.80;99.90;;;;;;4944502;29;20213;-69
2022/02/07 16:00:40;;;;;;;7.50;2.10;;;5.70;99.90;;;;;;4946298;29;20543;-68
2022/02/07 16:03:08;;;;;;;2.90;1.90;;;5.60;99.90;;;;;;4947943;28;20217;-68
2022/02/07 16:05:36;;;;;;;6.00;1.23;;;5.50;99.90;;;;;;4952786;28;20217;-68
2022/02/07 16:08:03;;;;;;;4.95;1.80;;;5.40;99.90;;;;;;4945950;29;20228;-67
2022/02/07 16:10:33;;;;;;;9.25;1.27;;;5.40;99.90;;;;;;4940818;28;20205;-67
2022/02/07 16:13:04;;;;;;;1.63;1.40;;;5.30;99.90;;;;;;4945091;28;20237;-68
2022/02/07 16:15:31;;;;;;;8.70;2.10;;;5.30;99.90;;;;;;4949385;28;20225;-69
2022/02/07 16:17:58;;;;;;;14.98;2.25;;;5.30;99.90;;;;;;4957519;28;20218;-67
2022/02/07 16:20:26;;;;;;;4.45;1.77;;;5.30;99.90;;;;;;4952710;29;20236;-68
2022/02/07 16:22:53;;;;;;;4.70;1.80;;;5.20;99.90;;;;;;4951141;28;20224;-68
2022/02/07 16:25:20;;;;;;;5.55;1.63;;;5.20;99.90;;;;;;4958791;28;20702;-67
2022/02/07 16:27:46;;;;;;;4.03;1.42;;;5.10;99.90;;;;;;4954019;28;20205;-68
2022/02/07 16:30:13;;;;;;;2.35;1.05;;;5.10;99.90;;;;;;4949193;29;20209;-68
2022/02/07 16:32:40;;;;;;;6.95;1.90;;;5.00;99.90;;;;;;4950601;28;20212;-67
2022/02/07 16:35:07;;;;;;;3.42;1.80;;;5.00;99.90;;;;;;4952842;28;20675;-69
2022/02/07 16:37:35;;;;;;;1.98;1.85;;;4.90;99.90;;;;;;4953041;28;20224;-68
2022/02/07 16:40:01;;;;;;;1.40;1.30;;;4.90;99.90;;;;;;4952929;28;20213;-67
2022/02/07 16:42:28;;;;;;;9.27;2.38;;;4.80;99.90;;;;;;4951377;28;20303;-68
2022/02/07 16:45:02;;;;;;;3.90;1.95;;;4.80;99.90;;;;;;4953706;28;20714;-68
2022/02/07 16:47:29;;;;;;;4.80;2.92;;;4.70;99.90;;;;;;4943335;28;20206;-68
2022/02/07 16:49:55;;;;;;;7.20;2.03;;;4.70;99.90;;;;;;4945248;28;20551;-68
2022/02/07 16:52:22;;;;;;;3.05;2.08;;;4.60;99.90;;;;;;4961362;28;20205;-68
2022/02/07 16:54:50;;;;;;;4.47;1.63;;;4.60;99.90;;;;;;4950137;28;20244;-68
2022/02/07 16:57:17;;;;;;;7.97;1.90;;;4.60;99.90;;;;;;4943217;28;20252;-68
2022/02/07 16:59:44;;;;;;;8.10;2.65;;;4.50;99.90;;;;;;4934201;29;20232;-68
2022/02/07 17:02:12;;;;;;;10.63;2.20;;;4.50;99.90;;;;;;4934065;29;20218;-68
2022/02/07 17:04:42;;;;;;;5.28;2.30;;;4.50;99.90;;;;;;4939296;28;20224;-68
2022/02/07 17:07:09;;;;;;;2.28;2.05;;;4.50;99.90;;;;;;4952691;28;20217;-68
2022/02/07 17:09:38;;;;;;;5.43;2.20;;;4.50;99.90;;;;;;4952111;28;20288;-68
2022/02/07 17:12:07;;;;;;;2.55;1.55;;;4.40;99.90;;;;;;4948907;28;20568;-67
2022/02/07 17:14:34;;;;;;;3.75;1.98;;;4.40;99.90;;;;;;4957693;28;20236;-67
2022/02/07 17:17:01;;;;;;;6.15;4.35;;;4.40;99.90;;;;;;4940915;28;20257;-68
2022/02/07 17:19:30;;;;;;;7.45;4.93;;;4.40;99.90;;;;;;4949005;29;20210;-68
2022/02/07 17:21:57;;;;;;;8.35;4.57;;;4.30;99.90;;;;;;4952226;28;20292;-68
2022/02/07 17:24:24;;;;;;;7.47;2.40;;;4.30;99.90;;;;;;4952599;28;20216;-68
2022/02/07 17:26:50;;;;;;;2.58;2.05;;;4.30;99.90;;;;;;4947656;28;20213;-68
2022/02/07 17:29:18;;;;;;;6.15;3.58;;;4.30;99.90;;;;;;4954417;28;20205;-68
2022/02/07 17:31:45;;;;;;;14.18;4.70;;;4.30;99.90;;;;;;4944919;28;20696;-68
2022/02/07 17:34:13;;;;;;;5.63;3.35;;;4.30;99.90;;;;;;4952442;28;20224;-68
2022/02/07 17:36:39;;;;;;;11.10;4.82;;;4.30;99.90;;;;;;4941358;28;20222;-68
2022/02/07 17:39:07;;;;;;;7.53;3.83;;;4.30;99.90;;;;;;4942133;29;20575;-68
2022/02/07 17:41:34;;;;;;;5.85;3.75;;;4.30;99.90;;;;;;4951629;28;20277;-68
2022/02/07 17:44:02;;;;;;;12.55;3.00;;;4.30;99.90;;;;;;4946519;28;20240;-68
2022/02/07 17:46:30;;;;;;;17.00;3.40;;;4.30;99.90;;;;;;4936938;29;20243;-68
2022/02/07 17:48:59;;;;;;;4.38;2.63;;;4.30;99.90;;;;;;4952219;28;20303;-68
2022/02/07 17:51:26;;;;;;;4.97;2.65;;;4.30;99.90;;;;;;4952268;29;20541;-69
2022/02/07 17:53:53;;;;;;;6.05;2.10;;;4.40;99.90;;;;;;4948268;28;20225;-68
2022/02/07 17:56:19;;;;;;;4.80;2.20;;;4.40;99.90;;;;;;4950596;28;20236;-68
2022/02/07 17:58:46;;;;;;;7.53;2.78;;;4.40;99.90;;;;;;4952276;29;20209;-68
2022/02/07 18:01:13;;;;;;;8.68;2.85;;;4.40;99.90;;;;;;4953651;28;20227;-68
2022/02/07 18:03:41;;;;;;;6.72;2.95;;;4.40;99.90;;;;;;4954662;28;20598;-68
2022/02/07 18:06:09;;;;;;;9.60;2.88;;;4.30;99.90;;;;;;4948969;28;20227;-67
2022/02/07 18:08:36;;;;;;;4.25;2.78;;;4.30;99.90;;;;;;4951821;29;20364;-68
2022/02/07 18:11:03;;;;;;;5.35;2.45;;;4.20;99.90;;;;;;4951363;29;20216;-68
2022/02/07 18:13:29;;;;;;;5.95;3.17;;;4.20;99.90;;;;;;4943551;29;20214;-68
2022/02/07 18:15:58;;;;;;;7.07;4.22;;;4.20;99.90;;;;;;4940728;28;20242;-69
2022/02/07 18:18:26;;;;;;;11.85;4.50;;;4.20;99.90;;;;;;4944673;29;20209;-69
2022/02/07 18:20:55;;;;;;;10.38;4.68;;;4.20;99.90;;;;;;4952178;28;20237;-68
2022/02/07 18:23:22;;;;;;;6.57;3.10;;;4.10;99.90;;;;;;4952211;28;20295;-68
2022/02/07 18:25:49;;;;;;;5.28;2.45;;;4.10;99.90;;;;;;4951490;28;20233;-68
2022/02/07 18:28:18;;;;;;;5.68;3.20;;;4.10;99.90;;;;;;4958719;28;20215;-69
2022/02/07 18:30:47;;;;;;;6.13;2.42;;;4.10;99.90;;;;;;4956941;28;20211;-69
2022/02/07 18:33:16;;;;;;;3.05;2.33;;;4.10;99.90;;;;;;4952402;28;20269;-69
2022/02/07 18:35:46;;;;;;;5.18;1.90;;;4.10;99.90;;;;;;4953915;28;20299;-70
2022/02/07 18:38:17;;;;;;;13.05;2.60;;;4.10;99.90;;;;;;4954783;28;20281;-69
2022/02/07 18:40:49;;;;;;;10.38;3.55;;;4.10;99.90;;;;;;4952882;29;20205;-69